Time;durP1;ratioP1;P1;durP2;ratioP2;P2;SDS_P1;SDS_P2;PMS_P1;PMS_P2;Temp;Humidity;BMP_temperature;BMP_pressure;BME280_temperature;BME280_humidity;BME280_pressure;Samples;Min_cycle;Max_cycle;Signal;HPM_P1;HPM_P2
2022/12/16 00:00:10;;;;;;;11.10;5.03;;;16.50;99.90;;;;;;4953137;28;20058;-71
2022/12/16 00:02:38;;;;;;;15.98;6.28;;;16.50;99.90;;;;;;4967673;28;20039;-71
2022/12/16 00:05:06;;;;;;;17.85;6.10;;;16.50;99.90;;;;;;4970489;28;20054;-71
2022/12/16 00:07:34;;;;;;;17.80;7.18;;;16.50;99.90;;;;;;4959995;28;20043;-71
2022/12/16 00:10:02;;;;;;;18.75;6.22;;;16.40;99.90;;;;;;4951086;28;20059;-71
2022/12/16 00:12:29;;;;;;;13.15;5.60;;;16.50;99.90;;;;;;4946831;28;20035;-71
2022/12/16 00:14:57;;;;;;;14.88;5.95;;;16.50;99.90;;;;;;4970337;28;20046;-71
2022/12/16 00:17:24;;;;;;;18.33;5.63;;;16.50;99.90;;;;;;4962758;28;20431;-73
2022/12/16 00:19:52;;;;;;;12.20;5.13;;;16.50;99.90;;;;;;4989723;28;20058;-71
2022/12/16 00:22:19;;;;;;;27.80;10.40;;;16.50;99.90;;;;;;4977228;28;20125;-71
2022/12/16 00:24:47;;;;;;;22.55;6.72;;;16.50;99.90;;;;;;4969149;28;20413;-72
2022/12/16 00:27:14;;;;;;;22.00;5.80;;;16.50;99.90;;;;;;4962120;28;20402;-71
2022/12/16 00:29:42;;;;;;;16.92;6.80;;;16.50;99.90;;;;;;4950935;28;20579;-72
2022/12/16 00:32:09;;;;;;;15.40;5.32;;;16.50;99.90;;;;;;4964103;28;20043;-71
2022/12/16 00:34:37;;;;;;;11.70;5.15;;;16.60;99.90;;;;;;4971721;28;20057;-72
2022/12/16 00:37:04;;;;;;;16.88;5.35;;;16.60;99.90;;;;;;4971434;28;20046;-71
2022/12/16 00:39:32;;;;;;;16.25;6.10;;;16.60;99.90;;;;;;4960239;28;20527;-72
2022/12/16 00:41:59;;;;;;;15.20;6.55;;;16.60;99.90;;;;;;4958313;28;20050;-72
2022/12/16 00:44:27;;;;;;;13.00;5.75;;;16.60;99.90;;;;;;4954174;28;20515;-71
2022/12/16 00:46:54;;;;;;;9.98;5.75;;;16.60;99.90;;;;;;4969794;28;20053;-71
2022/12/16 00:49:22;;;;;;;23.33;9.05;;;16.60;99.90;;;;;;4953059;28;20410;-74
2022/12/16 00:51:49;;;;;;;12.65;5.88;;;16.60;99.90;;;;;;4950869;29;20105;-71
2022/12/16 00:54:17;;;;;;;13.45;6.03;;;16.60;99.90;;;;;;4951903;28;20051;-73
2022/12/16 00:56:44;;;;;;;16.33;6.97;;;16.70;99.90;;;;;;4952045;28;20138;-71
2022/12/16 00:59:11;;;;;;;18.67;6.97;;;16.70;99.90;;;;;;4956080;28;20097;-72
2022/12/16 01:01:39;;;;;;;15.95;6.50;;;16.60;99.90;;;;;;4968539;28;20153;-71
2022/12/16 01:04:06;;;;;;;20.38;6.47;;;16.70;99.90;;;;;;4968998;28;20493;-72
2022/12/16 01:06:34;;;;;;;11.75;6.32;;;16.60;99.90;;;;;;4970547;28;20050;-71
2022/12/16 01:09:01;;;;;;;8.57;6.00;;;16.70;99.90;;;;;;4969940;28;20061;-72
2022/12/16 01:11:28;;;;;;;17.63;6.22;;;16.60;99.90;;;;;;4953304;28;20413;-72
2022/12/16 01:13:56;;;;;;;20.90;7.95;;;16.70;99.90;;;;;;4969125;28;20672;-72
2022/12/16 01:16:23;;;;;;;19.42;6.20;;;16.70;99.90;;;;;;4970890;28;20051;-72
2022/12/16 01:18:52;;;;;;;16.52;6.60;;;16.70;99.90;;;;;;4969360;28;20058;-71
2022/12/16 01:21:19;;;;;;;24.27;6.25;;;16.70;99.90;;;;;;4969207;28;20458;-71
2022/12/16 01:23:47;;;;;;;22.63;7.03;;;16.70;99.90;;;;;;4921391;29;20141;-72
2022/12/16 01:26:16;;;;;;;10.20;5.28;;;16.70;99.90;;;;;;4951715;29;20047;-72
2022/12/16 01:28:46;;;;;;;16.85;6.72;;;16.70;99.90;;;;;;4959038;28;20449;-71
2022/12/16 01:31:17;;;;;;;20.95;6.47;;;16.80;99.90;;;;;;4953686;28;20102;-72
2022/12/16 01:33:44;;;;;;;15.40;6.60;;;16.70;99.90;;;;;;4947871;28;20046;-71
2022/12/16 01:36:12;;;;;;;21.08;7.85;;;16.70;99.90;;;;;;4970298;28;20567;-71
2022/12/16 01:38:42;;;;;;;18.75;7.00;;;16.80;99.90;;;;;;4970881;28;20042;-71
2022/12/16 01:41:12;;;;;;;16.85;5.35;;;16.80;99.90;;;;;;4957803;28;20517;-74
2022/12/16 01:43:41;;;;;;;15.05;6.05;;;16.70;99.90;;;;;;4952465;28;20059;-72
2022/12/16 01:46:11;;;;;;;40.17;7.68;;;16.80;99.90;;;;;;4968940;28;20058;-72
2022/12/16 01:48:53;;;;;;;18.92;8.18;;;16.80;99.90;;;;;;4953334;28;20123;-71
2022/12/16 01:51:26;;;;;;;15.52;6.88;;;16.80;99.90;;;;;;4968778;28;20042;-71
2022/12/16 01:54:00;;;;;;;21.17;6.97;;;16.80;99.90;;;;;;4951574;28;20071;-72
2022/12/16 01:56:31;;;;;;;17.17;6.82;;;16.80;99.90;;;;;;4969303;28;20086;-73
2022/12/16 01:58:59;;;;;;;26.88;8.02;;;16.80;99.90;;;;;;4969629;28;20077;-73
2022/12/16 02:01:27;;;;;;;18.48;6.93;;;16.80;99.90;;;;;;4968831;28;20079;-71
2022/12/16 02:03:57;;;;;;;15.98;6.72;;;16.80;99.90;;;;;;4939367;29;20455;-71
2022/12/16 02:06:25;;;;;;;12.80;5.28;;;16.80;99.90;;;;;;4960752;28;20046;-72
2022/12/16 02:08:56;;;;;;;20.05;7.40;;;16.80;99.90;;;;;;4945197;29;20086;-71
2022/12/16 02:11:51;;;;;;;18.10;7.43;;;16.90;99.90;;;;;;4933415;29;20454;-73
2022/12/16 02:14:49;;;;;;;12.48;6.15;;;16.90;99.90;;;;;;4949273;28;20183;-72
2022/12/16 02:17:53;;;;;;;18.42;7.63;;;17.00;99.90;;;;;;4959013;28;20403;-73
2022/12/16 02:20:50;;;;;;;16.15;6.90;;;16.90;99.90;;;;;;4950885;28;20047;-72
2022/12/16 02:23:54;;;;;;;12.45;6.05;;;16.90;99.90;;;;;;4950542;29;20485;-71
2022/12/16 02:26:28;;;;;;;20.90;8.30;;;16.90;99.90;;;;;;4933290;29;20049;-72
2022/12/16 02:29:28;;;;;;;15.05;8.30;;;17.00;99.90;;;;;;4933232;29;20441;-71
2022/12/16 02:31:55;;;;;;;22.83;8.38;;;16.90;99.90;;;;;;4923803;28;20163;-72
2022/12/16 02:34:41;;;;;;;16.88;7.95;;;17.00;99.90;;;;;;4950461;28;20070;-72
2022/12/16 02:37:29;;;;;;;13.55;6.53;;;17.00;99.90;;;;;;4949482;29;20043;-72
2022/12/16 02:40:03;;;;;;;19.35;7.65;;;16.90;99.90;;;;;;4956885;28;20501;-72
2022/12/16 02:42:40;;;;;;;18.98;6.25;;;16.90;99.90;;;;;;4953059;28;20414;-72
2022/12/16 02:45:09;;;;;;;17.02;8.23;;;16.90;99.90;;;;;;4951587;28;20054;-71
2022/12/16 02:47:38;;;;;;;20.23;6.78;;;16.90;99.90;;;;;;4968822;28;20070;-71
2022/12/16 02:50:20;;;;;;;21.52;7.65;;;16.90;99.90;;;;;;4954255;28;20043;-72
2022/12/16 02:52:49;;;;;;;12.95;5.28;;;16.90;99.90;;;;;;4949204;28;20054;-71
2022/12/16 02:55:17;;;;;;;19.13;6.38;;;16.90;99.90;;;;;;4936693;29;20142;-72
2022/12/16 02:58:36;;;;;;;19.75;6.63;;;16.90;99.90;;;;;;4971274;28;20070;-72
2022/12/16 03:01:11;;;;;;;21.05;7.15;;;16.90;99.90;;;;;;4945732;29;20513;-71
2022/12/16 03:04:01;;;;;;;19.38;5.90;;;16.90;99.90;;;;;;4953599;28;20089;-71
2022/12/16 03:06:32;;;;;;;16.60;6.18;;;16.90;99.90;;;;;;4958820;28;20035;-71
2022/12/16 03:09:05;;;;;;;31.13;8.68;;;17.00;99.90;;;;;;4973316;28;20097;-71
2022/12/16 03:11:33;;;;;;;12.98;4.90;;;17.00;99.90;;;;;;4971455;28;20066;-73
2022/12/16 03:14:02;;;;;;;14.18;5.70;;;17.00;99.90;;;;;;4944952;29;20141;-71
2022/12/16 03:16:31;;;;;;;19.58;6.70;;;16.90;99.90;;;;;;4953661;28;20075;-71
2022/12/16 03:19:02;;;;;;;18.52;6.32;;;16.90;99.90;;;;;;4956670;28;20042;-71
2022/12/16 03:21:37;;;;;;;14.05;5.45;;;16.90;99.90;;;;;;4955433;28;20050;-71
2022/12/16 03:24:12;;;;;;;12.02;6.32;;;17.00;99.90;;;;;;4971538;28;20055;-71
2022/12/16 03:26:46;;;;;;;16.83;6.18;;;17.00;99.90;;;;;;4970925;28;20047;-71
2022/12/16 03:29:21;;;;;;;22.85;6.32;;;17.00;99.90;;;;;;4953830;28;20497;-72
2022/12/16 03:31:58;;;;;;;14.37;6.30;;;17.00;99.90;;;;;;4962252;28;20381;-71
2022/12/16 03:34:52;;;;;;;21.13;6.00;;;17.00;99.90;;;;;;4972841;28;20046;-71
2022/12/16 03:37:23;;;;;;;13.65;6.00;;;17.10;99.90;;;;;;4971268;28;20404;-72
2022/12/16 03:39:56;;;;;;;19.75;6.30;;;17.00;99.90;;;;;;4966912;28;20509;-72
2022/12/16 03:42:24;;;;;;;22.67;6.95;;;17.00;99.90;;;;;;4936096;29;20518;-71
2022/12/16 03:44:52;;;;;;;27.40;5.95;;;17.10;99.90;;;;;;4936371;29;20458;-73
2022/12/16 03:47:20;;;;;;;16.00;5.15;;;17.10;99.90;;;;;;4951231;29;20439;-72
2022/12/16 03:49:50;;;;;;;16.92;5.57;;;17.00;99.90;;;;;;4957239;28;20130;-71
2022/12/16 03:52:17;;;;;;;18.42;7.13;;;17.00;99.90;;;;;;4952066;28;20137;-73
2022/12/16 03:54:45;;;;;;;18.50;5.88;;;17.00;99.90;;;;;;4952817;28;20472;-71
2022/12/16 03:57:12;;;;;;;16.17;5.30;;;16.90;99.90;;;;;;4951418;29;20505;-72
2022/12/16 03:59:41;;;;;;;34.70;7.63;;;16.90;99.90;;;;;;4952563;28;20391;-72
2022/12/16 04:02:09;;;;;;;16.08;6.47;;;16.90;99.90;;;;;;4966673;28;20527;-72
2022/12/16 04:04:36;;;;;;;17.40;6.03;;;17.00;99.90;;;;;;4970448;28;20058;-71
2022/12/16 04:07:19;;;;;;;14.13;5.05;;;17.00;99.90;;;;;;4971911;28;20054;-71
2022/12/16 04:09:51;;;;;;;25.42;7.03;;;16.90;99.90;;;;;;4951652;29;20091;-71
2022/12/16 04:26:16;;;;;;;17.98;6.57;;;17.00;99.90;;;;;;4967152;28;20489;-72
2022/12/16 04:28:43;;;;;;;14.18;6.72;;;16.90;99.90;;;;;;4951517;28;20092;-72
2022/12/16 04:31:11;;;;;;;18.95;6.18;;;16.90;99.90;;;;;;4952119;28;20470;-72
